.
WxDataArchive / Data Records for 2015-12-21
2015-12-20 December 2015 2015-12-22

Data Records for Monday, 21 December 2015

Time	Temp	Chill	HIndex	Humid	Dewpt	 Wind 	HiWind	WindDir	Rain 	Barom
-----	----	-----	------	-----	-----	------	------	-------	-----	-----
00:00	45.7	45.7	45.7	47	26.6	0	4	270	0.00	29.988 
00:05	45.7	45.7	45.7	48	27.1	0	2	270	0.00	29.988 
00:10	45.7	45.7	45.7	48	27.1	1	5	270	0.00	29.988 
00:15	45.7	45.7	45.7	48	27.1	1	5	68	0.00	29.974 
00:20	45.7	45.7	45.7	48	27.1	1	4	90	0.00	29.974 
00:25	45.7	45.7	45.7	48	27.1	1	5	315	0.00	29.974 
00:30	45.8	45.8	45.8	48	27.2	1	5	225	0.00	29.967 
00:35	45.8	45.8	45.8	48	27.2	1	4	225	0.00	29.967 
00:40	46.0	46.0	46.0	48	27.4	0	3	248	0.00	29.967 
00:45	46.1	46.1	46.1	48	27.5	1	7	248	0.00	29.960 
00:50	46.2	46.2	46.2	47	27.1	1	3	68	0.00	29.960 
00:55	46.2	46.2	46.2	47	27.1	1	3	22	0.00	29.960 
01:00	46.2	46.2	46.2	47	27.1	1	5	68	0.00	29.950 
01:05	46.2	46.2	46.2	47	27.1	0	4	68	0.00	29.950 
01:10	46.2	46.2	46.2	48	27.6	1	9	90	0.00	29.950 
01:15	46.2	46.2	46.2	48	27.6	1	5	90	0.00	29.942 
01:20	46.2	46.2	46.2	48	27.6	0	7	68	0.00	29.942 
01:25	46.2	46.2	46.2	48	27.6	1	7	90	0.00	29.942 
01:30	46.2	46.2	46.2	48	27.6	0	3	270	0.00	29.936 
01:35	46.2	46.2	46.2	48	27.6	1	5	270	0.00	29.936 
01:40	46.4	46.4	46.4	48	27.8	2	7	248	0.00	29.936 
01:45	46.4	46.4	46.4	48	27.8	1	6	248	0.00	29.931 
01:50	46.4	46.4	46.4	49	28.3	1	4	248	0.00	29.931 
01:55	46.2	46.2	46.2	49	28.1	1	5	90	0.00	29.931 
02:00	46.2	46.2	46.2	48	27.6	1	5	248	0.00	29.927 
02:05	46.2	46.2	46.2	48	27.6	1	4	292	0.00	29.927 
02:10	46.2	46.2	46.2	47	27.1	1	3	248	0.00	29.927 
02:15	46.2	46.2	46.2	47	27.1	1	4	248	0.00	29.920 
02:20	46.2	46.2	46.2	47	27.1	1	5	248	0.00	29.920 
02:25	46.2	46.2	46.2	49	28.1	1	3	248	0.00	29.920 
02:30	46.1	46.1	46.1	50	28.5	1	4	248	0.00	29.914 
02:35	46.0	46.0	46.0	51	28.9	1	5	270	0.00	29.914 
02:40	45.8	45.8	45.8	52	29.2	1	5	158	0.00	29.914 
02:45	45.7	45.7	45.7	54	30.0	0	3	248	0.00	29.906 
02:50	45.4	45.4	45.4	54	29.7	1	4	248	0.00	29.906 
02:55	45.2	45.2	45.2	54	29.6	1	4	90	0.00	29.906 
03:00	45.2	45.2	45.2	54	29.6	0	5	68	0.00	29.903 
03:05	45.4	45.4	45.4	53	29.3	0	3	225	0.00	29.903 
03:10	45.5	45.5	45.5	52	28.9	1	4	90	0.00	29.903 
03:15	45.7	45.7	45.7	52	29.1	0	3	292	0.00	29.895 
03:20	45.8	45.8	45.8	51	28.7	0	2	248	0.00	29.895 
03:25	46.0	46.0	46.0	51	28.9	0	2	248	0.00	29.895 
03:30	46.1	46.1	46.1	49	28.0	0	3	248	0.00	29.887 
03:35	46.4	46.4	46.4	49	28.3	1	6	292	0.00	29.887 
03:40	46.5	46.5	46.5	47	27.4	1	6	248	0.00	29.887 
03:45	46.8	46.8	46.8	46	27.1	1	4	225	0.00	29.881 
03:50	47.0	47.0	47.0	46	27.3	1	5	248	0.00	29.881 
03:55	47.0	47.0	47.0	48	28.3	1	5	68	0.00	29.881 
04:00	47.0	47.0	47.0	48	28.3	1	5	270	0.00	29.882 
04:05	46.8	46.8	46.8	49	28.7	0	3	248	0.00	29.882 
04:10	46.7	46.7	46.7	49	28.6	1	3	248	0.00	29.882 
04:15	46.7	46.7	46.7	50	29.1	1	4	248	0.00	29.885 
04:20	46.5	46.5	46.5	53	30.3	1	5	248	0.00	29.885 
04:25	46.2	46.2	46.2	55	30.9	1	4	248	0.01	29.885 
04:30	45.8	45.8	45.8	58	31.9	1	5	248	0.00	29.890 
04:35	45.2	45.2	45.2	62	33.0	0	4	248	0.01	29.890 
04:40	44.8	44.8	44.8	65	33.8	0	3	248	0.01	29.890 
04:45	44.2	44.2	44.2	70	35.0	0	2	248	0.00	29.905 
04:50	43.8	43.8	43.8	73	35.7	0	4	248	0.01	29.905 
04:55	43.3	43.3	43.3	75	35.9	0	3	248	0.01	29.905 
05:00	42.9	42.9	42.9	76	35.9	0	3	248	0.00	29.903 
05:05	42.6	42.6	42.6	77	35.9	1	3	248	0.01	29.903 
05:10	42.3	42.3	42.3	79	36.3	1	4	248	0.02	29.903 
05:15	42.2	42.2	42.2	81	36.8	1	4	248	0.01	29.887 
05:20	41.9	41.9	41.9	82	36.8	0	4	270	0.01	29.887 
05:25	41.6	41.6	41.6	83	36.8	0	3	270	0.01	29.887 
05:30	41.5	41.5	41.5	84	37.0	0	3	225	0.00	29.888 
05:35	41.3	41.3	41.3	84	36.8	0	2	225	0.01	29.888 
05:40	41.3	41.3	41.3	85	37.1	0	3	248	0.00	29.888 
05:45	41.2	41.2	41.2	86	37.3	0	1	248	0.01	29.883 
05:50	41.2	41.2	41.2	86	37.3	0	2	248	0.00	29.883 
05:55	41.2	41.2	41.2	86	37.3	1	6	68	0.01	29.883 
06:00	41.2	41.2	41.2	87	37.6	0	4	45	0.00	29.881 
06:05	41.2	41.2	41.2	87	37.6	1	5	248	0.01	29.881 
06:10	41.2	41.2	41.2	87	37.6	0	3	248	0.01	29.881 
06:15	41.2	41.2	41.2	88	37.9	1	4	248	0.03	29.894 
06:20	41.1	41.1	41.1	88	37.8	0	2	248	0.02	29.894 
06:25	41.1	41.1	41.1	89	38.1	0	2	248	0.01	29.894 
06:30	41.1	41.1	41.1	89	38.1	1	7	248	0.00	29.896 
06:35	40.9	40.9	40.9	89	37.9	0	2	248	0.01	29.896 
06:40	40.9	40.9	40.9	90	38.2	1	3	248	0.00	29.896 
06:45	40.9	40.9	40.9	90	38.2	0	2	248	0.01	29.895 
06:50	40.9	40.9	40.9	90	38.2	1	3	248	0.00	29.895 
06:55	40.8	40.8	40.8	91	38.4	1	4	248	0.01	29.895 
07:00	40.8	40.8	40.8	91	38.4	1	3	248	0.01	29.893 
07:05	40.8	40.8	40.8	91	38.4	0	2	248	0.00	29.893 
07:10	40.8	40.8	40.8	91	38.4	0	4	248	0.01	29.893 
07:15	40.8	40.8	40.8	91	38.4	0	3	248	0.00	29.893 
07:20	40.8	40.8	40.8	92	38.7	0	3	248	0.01	29.893 
07:25	40.8	40.8	40.8	92	38.7	0	2	248	0.02	29.893 
07:30	40.8	40.8	40.8	88	37.5	1	4	248	0.01	29.886 
07:35	40.8	40.8	40.8	92	38.7	1	4	248	0.01	29.886 
07:40	40.8	40.8	40.8	92	38.7	0	3	22	0.00	29.886 
07:45	40.8	40.8	40.8	92	38.7	0	2	338	0.00	29.879 
07:50	40.8	40.8	40.8	92	38.7	0	3	338	0.00	29.879 
07:55	40.8	40.8	40.8	92	38.7	0	3	338	0.00	29.879 
08:00	40.9	40.9	40.9	92	38.8	0	2	68	0.00	29.874 
08:05	40.9	40.9	40.9	92	38.8	0	2	68	0.00	29.874 
08:10	40.9	40.9	40.9	92	38.8	0	2	68	0.00	29.874 
08:15	41.1	41.1	41.1	92	39.0	0	2	45	0.00	29.865 
08:20	41.2	41.2	41.2	92	39.1	0	2	45	0.00	29.865 
08:25	41.2	41.2	41.2	93	39.3	0	3	270	0.00	29.865 
08:30	41.3	41.3	41.3	93	39.4	1	3	270	0.00	29.862 
08:35	41.5	41.5	41.5	93	39.6	1	5	270	0.00	29.862 
08:40	41.8	41.8	41.8	92	39.6	1	9	68	0.00	29.862 
08:45	41.9	41.9	41.9	92	39.7	1	7	225	0.00	29.864 
08:50	42.1	42.1	42.1	92	39.9	0	3	292	0.00	29.864 
08:55	42.2	42.2	42.2	92	40.0	0	4	68	0.00	29.864 
09:00	42.3	42.3	42.3	92	40.1	1	4	270	0.00	29.852 
09:05	42.5	42.5	42.5	92	40.3	1	7	225	0.00	29.852 
09:10	42.6	42.6	42.6	92	40.4	1	5	90	0.00	29.852 
09:15	42.6	42.6	42.6	92	40.4	1	6	45	0.00	29.852 
09:20	42.8	42.8	42.8	92	40.6	1	7	90	0.00	29.852 
09:25	42.9	42.9	42.9	92	40.7	2	7	90	0.00	29.852 
09:30	43.1	43.1	43.1	92	40.9	1	4	248	0.01	29.845 
09:35	43.1	43.1	43.1	92	40.9	1	3	270	0.00	29.845 
09:40	43.2	43.2	43.2	92	41.0	1	10	112	0.00	29.845 
09:45	43.2	43.2	43.2	92	41.0	1	6	270	0.00	29.842 
09:50	43.2	43.2	43.2	92	41.0	1	5	270	0.00	29.842 
09:55	43.3	43.3	43.3	92	41.1	1	10	90	0.00	29.842 
10:00	43.3	43.3	43.3	92	41.1	1	4	135	0.00	29.844 
10:05	43.3	43.3	43.3	92	41.1	0	2	68	0.00	29.844 
10:10	43.3	43.3	43.3	93	41.4	1	3	22	0.00	29.844 
10:15	43.3	43.3	43.3	93	41.4	1	4	270	0.00	29.849 
10:20	43.5	43.5	43.5	93	41.6	2	5	248	0.02	29.849 
10:25	43.5	43.5	43.5	93	41.6	1	5	248	0.04	29.849 
10:30	43.6	43.6	43.6	93	41.7	1	4	270	0.02	29.857 
10:35	43.6	43.6	43.6	93	41.7	0	2	248	0.01	29.857 
10:40	43.8	43.8	43.8	93	41.9	1	3	248	0.01	29.857 
10:45	43.8	43.8	43.8	93	41.9	1	4	68	0.00	29.845 
10:50	43.9	43.9	43.9	93	42.0	1	3	248	0.00	29.845 
10:55	43.9	43.9	43.9	93	42.0	1	3	248	0.01	29.845 
11:00	44.1	44.1	44.1	93	42.2	1	4	248	0.01	29.854 
11:05	44.1	44.1	44.1	93	42.2	2	5	248	0.00	29.854 
11:10	44.2	44.2	44.2	93	42.3	0	2	248	0.00	29.854 
11:15	44.2	44.2	44.2	93	42.3	1	3	248	0.00	29.842 
11:20	44.3	44.3	44.3	94	42.7	0	2	248	0.00	29.842 
11:25	44.3	44.3	44.3	94	42.7	1	6	248	0.00	29.842 
11:30	44.5	44.5	44.5	94	42.9	1	3	292	0.00	29.839 
11:35	44.6	44.6	44.6	94	43.0	1	3	248	0.00	29.839 
11:40	44.8	44.8	44.8	94	43.2	1	5	248	0.00	29.839 
11:45	44.9	44.9	44.9	94	43.3	1	5	90	0.00	29.827 
11:50	45.1	45.1	45.1	94	43.5	1	6	248	0.00	29.827 
11:55	45.2	45.2	45.2	94	43.6	1	6	248	0.00	29.827 
12:00	45.4	45.4	45.4	94	43.8	1	5	248	0.00	29.826 
12:05	45.5	45.5	45.5	94	43.9	1	3	248	0.00	29.826 
12:10	45.8	45.8	45.8	93	43.9	1	4	225	0.00	29.826 
12:15	46.0	46.0	46.0	93	44.1	1	4	270	0.00	29.811 
12:20	46.1	46.1	46.1	93	44.2	2	5	248	0.00	29.811 
12:25	46.2	46.2	46.2	93	44.3	1	5	248	0.00	29.811 
12:30	46.2	46.2	46.2	93	44.3	0	4	248	0.00	29.804 
12:35	46.4	46.4	46.4	93	44.5	2	6	248	0.00	29.804 
12:40	46.4	46.4	46.4	92	44.2	1	4	248	0.00	29.804 
12:45	46.4	46.4	46.4	92	44.2	2	7	248	0.01	29.797 
12:50	46.4	46.4	46.4	92	44.2	1	4	248	0.00	29.797 
12:55	46.4	46.4	46.4	92	44.2	2	6	248	0.00	29.797 
13:00	46.4	46.4	46.4	92	44.2	1	5	248	0.00	29.794 
13:05	46.5	46.5	46.5	93	44.6	1	4	248	0.00	29.794 
13:10	46.5	46.5	46.5	93	44.6	1	4	248	0.00	29.794 
13:15	46.5	46.5	46.5	93	44.6	0	3	248	0.00	29.792 
13:20	46.5	46.5	46.5	93	44.6	1	3	248	0.00	29.792 
13:25	46.7	46.7	46.7	93	44.8	1	5	248	0.00	29.792 
13:30	46.8	46.8	46.8	93	44.9	1	4	248	0.00	29.789 
13:35	47.0	47.0	47.0	93	45.1	1	5	248	0.00	29.789 
13:40	47.0	47.0	47.0	93	45.1	1	5	248	0.00	29.789 
13:45	47.1	47.1	47.1	93	45.2	1	4	248	0.00	29.777 
13:50	47.3	47.3	47.3	93	45.4	1	5	248	0.00	29.777 
13:55	47.4	47.4	47.4	93	45.5	1	3	248	0.00	29.777 
14:00	47.7	47.7	47.7	93	45.8	1	4	248	0.00	29.773 
14:05	47.9	47.9	47.9	93	46.0	1	6	248	0.00	29.773 
14:10	48.0	48.0	48.0	93	46.1	1	3	248	0.00	29.773 
14:15	48.2	48.2	48.2	93	46.3	2	5	248	0.00	29.775 
14:20	48.3	48.3	48.3	92	46.1	1	5	248	0.00	29.775 
14:25	48.5	48.5	48.5	92	46.3	1	5	248	0.00	29.775 
14:30	48.6	48.6	48.6	92	46.4	1	6	248	0.00	29.773 
14:35	48.8	48.8	48.8	92	46.6	1	9	248	0.00	29.773 
14:40	48.9	48.9	48.9	92	46.7	2	10	248	0.00	29.773 
14:45	49.1	49.1	49.1	92	46.9	2	6	248	0.00	29.774 
14:50	49.2	49.2	49.2	92	47.0	2	6	248	0.00	29.774 
14:55	49.4	49.4	49.4	92	47.2	1	6	248	0.00	29.774 
15:00	49.5	49.5	49.5	92	47.3	1	7	248	0.00	29.773 
15:05	49.6	49.6	49.6	92	47.4	1	4	248	0.00	29.773 
15:10	49.8	49.8	49.8	92	47.6	1	5	248	0.00	29.773 
15:15	49.8	49.8	49.8	91	47.3	2	7	248	0.00	29.773 
15:20	49.9	49.9	49.9	91	47.4	2	9	248	0.00	29.773 
15:25	50.1	50.1	50.1	91	47.6	1	5	248	0.00	29.773 
15:30	50.2	50.2	50.2	91	47.7	2	6	248	0.00	29.772 
15:35	50.4	50.4	50.4	91	47.9	2	6	248	0.00	29.772 
15:40	50.4	50.4	50.4	90	47.6	1	7	248	0.00	29.772 
15:45	50.5	50.5	50.5	90	47.7	1	4	225	0.00	29.773 
15:50	50.5	50.5	50.5	90	47.7	1	3	248	0.00	29.773 
15:55	50.5	50.5	50.5	90	47.7	1	4	248	0.00	29.773 
16:00	50.5	50.5	50.5	90	47.7	1	4	248	0.00	29.769 
16:05	50.7	50.7	50.7	90	47.9	0	3	248	0.00	29.769 
16:10	50.7	50.7	50.7	90	47.9	1	4	248	0.00	29.769 
16:15	50.8	50.8	50.8	90	48.0	1	4	248	0.00	29.770 
16:20	50.8	50.8	50.8	90	48.0	1	3	248	0.00	29.770 
16:25	51.0	51.0	51.0	90	48.2	1	4	248	0.00	29.770 
16:30	51.1	51.1	51.1	90	48.3	1	4	248	0.00	29.773 
16:35	51.1	51.1	51.1	90	48.3	1	3	248	0.00	29.773 
16:40	51.3	51.3	51.3	90	48.5	1	3	248	0.00	29.773 
16:45	51.3	51.3	51.3	89	48.2	1	5	248	0.00	29.775 
16:50	51.4	51.4	51.4	89	48.3	1	5	248	0.00	29.775 
16:55	51.6	51.6	51.6	89	48.5	1	4	248	0.00	29.775 
17:00	51.6	51.6	51.6	89	48.5	1	3	248	0.00	29.774 
17:05	51.7	51.7	51.7	89	48.6	1	4	248	0.00	29.774 
17:10	51.7	51.7	51.7	88	48.3	1	4	248	0.00	29.774 
17:15	51.9	51.9	51.9	88	48.5	0	2	248	0.00	29.781 
17:20	51.9	51.9	51.9	88	48.5	1	6	248	0.00	29.781 
17:25	52.0	52.0	52.0	88	48.6	1	4	248	0.00	29.781 
17:30	52.0	52.0	52.0	88	48.6	1	4	248	0.00	29.785 
17:35	52.2	52.2	52.2	88	48.8	1	4	248	0.00	29.785 
17:40	52.2	52.2	52.2	88	48.8	1	4	248	0.00	29.785 
17:45	52.2	52.2	52.2	88	48.8	1	3	248	0.00	29.782 
17:50	52.2	52.2	52.2	87	48.4	0	3	248	0.00	29.782 
17:55	52.2	52.2	52.2	87	48.4	1	6	248	0.00	29.782 
18:00	52.3	52.3	52.3	87	48.5	1	5	248	0.00	29.784 
18:05	52.3	52.3	52.3	87	48.5	0	4	248	0.00	29.784 
18:10	52.2	52.2	52.2	87	48.4	0	3	248	0.00	29.784 
18:15	52.2	52.2	52.2	87	48.4	1	4	248	0.00	29.791 
18:20	52.2	52.2	52.2	87	48.4	1	3	292	0.00	29.791 
18:25	52.2	52.2	52.2	88	48.8	1	3	248	0.00	29.791 
18:30	52.2	52.2	52.2	88	48.8	1	5	248	0.00	29.790 
18:35	52.0	52.0	52.0	88	48.6	1	2	248	0.00	29.790 
18:40	52.0	52.0	52.0	88	48.6	0	3	248	0.00	29.790 
18:45	52.0	52.0	52.0	88	48.6	1	4	315	0.00	29.794 
18:50	52.0	52.0	52.0	88	48.6	0	2	315	0.00	29.794 
18:55	52.0	52.0	52.0	88	48.6	0	4	22	0.00	29.794 
19:00	51.9	51.9	51.9	88	48.5	1	4	248	0.00	29.799 
19:05	51.9	51.9	51.9	88	48.5	0	3	270	0.00	29.799 
19:10	51.9	51.9	51.9	88	48.5	0	2	270	0.00	29.799 
19:15	51.9	51.9	51.9	88	48.5	1	4	270	0.00	29.800 
19:20	51.9	51.9	51.9	88	48.5	1	7	90	0.00	29.800 
19:25	51.9	51.9	51.9	88	48.5	1	5	68	0.00	29.800 
19:30	51.7	51.7	51.7	88	48.3	1	5	112	0.00	29.806 
19:35	51.6	51.6	51.6	88	48.2	2	6	90	0.00	29.806 
19:40	51.4	51.4	51.4	89	48.3	1	4	315	0.00	29.806 
19:45	51.4	51.4	51.4	89	48.3	1	4	315	0.00	29.802 
19:50	51.4	51.4	51.4	89	48.3	1	5	45	0.00	29.802 
19:55	51.6	51.6	51.6	89	48.5	1	3	225	0.00	29.802 
20:00	51.6	51.6	51.6	89	48.5	0	2	180	0.00	29.804 
20:05	51.7	51.7	51.7	89	48.6	0	2	248	0.00	29.804 
20:10	51.7	51.7	51.7	89	48.6	0	4	315	0.00	29.804 
20:15	51.7	51.7	51.7	89	48.6	0	2	68	0.00	29.792 
20:20	51.7	51.7	51.7	89	48.6	0	2	68	0.00	29.792 
20:25	51.7	51.7	51.7	89	48.6	0	2	315	0.00	29.792 
20:30	51.7	51.7	51.7	90	48.9	0	2	315	0.00	29.789 
20:35	51.7	51.7	51.7	90	48.9	0	3	315	0.00	29.789 
20:40	51.7	51.7	51.7	90	48.9	1	4	248	0.00	29.789 
20:45	51.9	51.9	51.9	90	49.1	0	3	248	0.00	29.801 
20:50	51.9	51.9	51.9	90	49.1	1	3	225	0.00	29.801 
20:55	51.9	51.9	51.9	90	49.1	1	2	225	0.00	29.801 
21:00	51.9	51.9	51.9	90	49.1	1	4	270	0.00	29.804 
21:05	52.0	52.0	52.0	90	49.2	0	2	292	0.00	29.804 
21:10	52.0	52.0	52.0	90	49.2	0	2	270	0.00	29.804 
21:15	52.0	52.0	52.0	90	49.2	0	3	248	0.00	29.800 
21:20	52.0	52.0	52.0	90	49.2	0	5	248	0.00	29.800 
21:25	52.0	52.0	52.0	90	49.2	0	3	248	0.00	29.800 
21:30	52.2	52.2	52.2	90	49.4	0	2	248	0.00	29.800 
21:35	52.2	52.2	52.2	90	49.4	0	4	248	0.00	29.800 
21:40	52.3	52.3	52.3	90	49.5	1	3	248	0.00	29.800 
21:45	52.3	52.3	52.3	90	49.5	0	2	248	0.00	29.788 
21:50	52.5	52.5	52.5	90	49.7	0	3	248	0.00	29.788 
21:55	52.5	52.5	52.5	90	49.7	0	2	248	0.00	29.788 
22:00	52.5	52.5	52.5	90	49.7	0	2	248	0.00	29.776 
22:05	52.5	52.5	52.5	90	49.7	0	2	248	0.00	29.776 
22:10	52.5	52.5	52.5	90	49.7	0	1	248	0.00	29.776 
22:15	52.5	52.5	52.5	89	49.4	0	1	248	0.00	29.772 
22:20	52.5	52.5	52.5	90	49.7	0	3	248	0.00	29.772 
22:25	52.5	52.5	52.5	90	49.7	0	3	248	0.00	29.772 
22:30	52.3	52.3	52.3	90	49.5	1	5	248	0.00	29.772 
22:35	52.3	52.3	52.3	90	49.5	0	2	248	0.00	29.772 
22:40	52.3	52.3	52.3	90	49.5	0	3	248	0.00	29.772 
22:45	52.3	52.3	52.3	90	49.5	1	3	90	0.00	29.779 
22:50	52.2	52.2	52.2	90	49.4	0	3	90	0.00	29.779 
22:55	52.2	52.2	52.2	90	49.4	1	4	90	0.00	29.779 
23:00	52.2	52.2	52.2	90	49.4	0	1	68	0.00	29.771 
23:05	52.0	52.0	52.0	90	49.2	0	1	68	0.00	29.771 
23:10	52.0	52.0	52.0	90	49.2	0	2	68	0.00	29.771 
23:15	52.0	52.0	52.0	91	49.5	0	2	68	0.00	29.770 
23:20	51.9	51.9	51.9	91	49.4	0	1	68	0.00	29.770 
23:25	51.9	51.9	51.9	91	49.4	0	1	68	0.00	29.770 
23:30	51.9	51.9	51.9	91	49.4	0	2	68	0.00	29.766 
23:35	51.9	51.9	51.9	91	49.4	0	1	68	0.00	29.766 
23:40	51.9	51.9	51.9	91	49.4	0	2	68	0.00	29.766 
23:45	51.9	51.9	51.9	91	49.4	0	3	68	0.00	29.763 
23:50	51.9	51.9	51.9	92	49.6	0	1	68	0.00	29.763 
23:55	51.9	51.9	51.9	92	49.6	0	1	68	0.00	29.763 

CoCoRaHS
IN-AL-39
A2 Web Hosting
Creative Commons License
GoDaddy
search engine by freefind advanced

loaded 2018-11-20 09:34:38 • last modified 2010-11-18 10:43:29
Privacy PolicyDisclaimer
• wx.awcolley.com is powered by PmWiki v.2002016 •
• all content (unless otherwise noted) © 2018 A W Colley